Wilson Creek, WA (98860)

9:59 PM PDT on August 21, 2014 (GMT -0700)
Adrian | Change Station
CLOSE
Current Station
Personal Weather Station
Location: Soap Lake, WA
Elevation: 1201 ft
Nearby Weather Stations
Active Advisory: Flash Flood Warning

Elev 1201 ft 47.39 °N, 119.38 °W | Updated 16 seconds ago

Mostly Cloudy
Mostly Cloudy
68.2 °F
Feels Like 68.2 °F
N
14.5
Wind Variable Wind from North
Gusts 17.4 mph

Today
High -- | Low -- °F
--% Chance of Precip.
Yesterday
High -- | Low -- °F
Precip. -- in
6:00 AM 7:57 PM
Waning Crescent, 10% visible
Pressure 29.87 in
Visibility 10.0 miles
Clouds Mostly Cloudy 9000 ft
Dew Point 52 °F
Humidity 56%
Rainfall 0.00 in
Snow Depth Not available.
UV 0 out of 12
Pollen 5.60 out of 12
Air Quality Not available.
Flu Activity Not available.
METAR KMWH 220452Z AUTO 36020G25KT 10SM BKN090 21/09 A2988 RMK AO2 LTG DSNT NW SLP113 T02060094

More Conditions Fewer Conditions

Pressure 29.87 in
Visibility 10.0 miles
Clouds Mostly Cloudy 9000 ft
Dew Point 52 °F
Humidity 56%
Rainfall 0.00 in
Snow Depth Not available.
UV 0 out of 12
Pollen 5.60 out of 12
Air Quality Not available.
Flu Activity Not available.
METAR KMWH 220452Z AUTO 36020G25KT 10SM BKN090 21/09 A2988 RMK AO2 LTG DSNT NW SLP113 T02060094

More Conditions Fewer Conditions

10-Day Weather Forecast

Almanac

Astronomy

Aug. 21, 2014 Rise Set
Actual Time 6:00 AM PDT 7:57 PM PDT
Civil Twilight 5:27 AM PDT 8:30 PM PDT
Nautical Twilight 4:47 AM PDT 9:10 PM PDT
Astronomical Twilight 4:02 AM PDT 9:55 PM PDT
Moon 2:28 AM PDT (8/21) 5:35 PM PDT (8/21)
Length of Visible Light 15h 02m
Length of Day
13h 56m
Tomorrow will be 3m 10s shorter.
Waning Crescent, 10% of the Moon is Illuminated
Aug 22
Waning Crescent
Aug 25
New
Sep 2
First Quarter
Sep 8
Full
Sep 15
Last Quarter

Yesterday's Extremes

State Highs State Lows

Community

WunderPhotos

Upload Photos

1,746,130 photos uploaded!

Nearby

Snow Depth

Station Depth Elevation
Trough 0 in 5300 ft
Upper Wheeler 0 in 4400 ft
Grouse Camp 0 in 5380 ft
Moses Mountain 1 in 5300 ft
Sasse Ridge 0 in 4200 ft

Earthquake Activity

City Distance Mag. Time & Date
No recent earthquake activity has been reported nearby.
Minimum magnitude displayed is 2.5.

Coastal Water Temperatures

Place Temperature
No Stations Reporting

Nearby Weather Stations